x

Ilm3 - 27 Miles Se Of Wrightsville Beach, Nc (41037) Weather Station

6:00pm - Thu 10th Jul 2014 All times are EDT. -4 hours from GMT.

  • Wind
    20mph, 25mph gusts
  • Sea Temp 82°f
  • Air Temp 78°f
  • Sea Pressure 1017.7mb
  • Ilm3 - 27 Miles Se Of Wrightsville Beach, Nc
  • Ilm3 - 27 Miles Se Of Wrightsville Beach, Nc

More Historic Weather Station data

Upgrade to MSW Pro to gain access to the past 30 days of data for over 8000 Wavebouys and Weather Stations around the globe.

Join Pro

Comparision Forecast

View Surf forecast
   
Thu 07/10 6:00pm 20 25 mph 1017.7mb 82f 78f
5:00pm 20 25 mph 1017.9mb 82f 78f
4:00pm 20 22 mph 1018.2mb 82f 78f
3:00pm 20 25 mph 1018.3mb 82f 79f
2:00pm 16 20 mph 1018.6mb 81f 77f
1:00pm 16 18 mph 1019.1mb 81f 74f
12:00pm 2 7 mph 1020.7mb 81f 68f
11:00am 16 18 mph 1019.6mb 82f 78f
10:00am 16 18 mph 1019.6mb 82f 78f
9:00am 16 18 mph 1019.2mb 81f 78f
8:00am 16 20 mph 1018.6mb 81f 78f
7:00am 16 18 mph 1018mb 81f 78f
6:00am 18 20 mph 1017.8mb 81f 78f
5:00am 18 22 mph 1017.2mb 81f 77f
4:00am 18 20 mph 1017.4mb 81f 78f
3:00am 18 22 mph 1017.7mb 81f 78f
2:00am 20 22 mph 1017.8mb 81f 78f
1:00am 20 22 mph 1018mb 81f 78f
12:00am 20 25 mph 1017.7mb 81f 78f
Wed 07/09 11:00pm 18 25 mph 1017.9mb 81f 78f
10:00pm 20 22 mph 1017.5mb 81f 78f
9:00pm 20 25 mph 1016.8mb 82f 78f
8:00pm 25 27 mph 1016.3mb 82f 78f
6:00pm 22 27 mph 1016.2mb 82f 78f
5:00pm 25 27 mph 1015.4mb 82f 78f
3:00pm 20 25 mph 1016.7mb 81f 78f
2:00pm 20 22 mph 1017.2mb 81f 78f
1:00pm 20 22 mph 1017.3mb 81f 78f
12:00pm 20 22 mph 1017.9mb 81f 78f
11:00am 18 22 mph 1017.7mb 81f 78f
10:00am 16 20 mph 1017.5mb 81f 78f
8:00am 18 20 mph 1017.7mb 81f 78f
7:00am 20 22 mph 1016.5mb 81f 78f
6:00am 20 25 mph 1015.7mb 81f 78f
5:00am 22 25 mph 1015.7mb 81f 78f
4:00am 22 27 mph 1015.5mb 81f 78f
3:00am 27 34 mph 1016mb 81f 78f
2:00am 22 27 mph 1016.4mb 81f 78f
1:00am 20 25 mph 1016.6mb 81f 78f
12:00am 22 27 mph 1017.4mb 81f 78f
Tue 07/08 11:00pm 25 29 mph 1016.9mb 81f 78f
10:00pm 25 29 mph 1016.2mb 81f 78f
9:00pm 25 29 mph 1015.4mb 81f 78f
8:00pm 25 27 mph 1015.5mb 81f 78f
7:00pm 25 29 mph 1015.4mb 81f 78f
6:00pm 25 29 mph 1015.4mb 82f 78f
5:00pm 25 29 mph 1015.5mb 82f 78f
4:00pm 20 25 mph 1016mb 82f 78f
3:00pm 20 22 mph 1016.6mb 82f 78f
2:00pm 18 22 mph 1017.3mb 82f 78f
1:00pm 16 18 mph 1017.8mb 81f 78f
12:00pm 18 22 mph 1018.2mb 81f 78f
11:00am 18 20 mph 1018.7mb 81f 78f
10:00am 20 25 mph 1018.5mb 81f 78f
9:00am 18 22 mph 1018mb 81f 78f
8:00am 20 22 mph 1017.3mb 81f 78f
7:00am 20 22 mph 1016.7mb 81f 78f
6:00am 18 22 mph 1016.7mb 81f 77f
5:00am 20 22 mph 1016.6mb 81f 78f
4:00am 22 25 mph 1016.5mb 81f 77f
3:00am 22 25 mph 1017.6mb 81f 77f
2:00am 22 25 mph 1017.8mb 81f 77f
1:00am 20 22 mph 1017.4mb 81f 77f
12:00am 22 25 mph 1017.7mb 81f 77f
Mon 07/07 11:00pm 20 22 mph 1017.5mb 81f 77f
10:00pm 18 22 mph 1016.7mb 81f 77f
9:00pm 20 22 mph 1016.1mb 82f 77f
8:00pm 18 20 mph 1016.3mb 82f 77f
7:00pm 18 20 mph 1016.2mb 82f 77f
6:00pm 16 20 mph 1016.8mb 82f 77f
5:00pm 13 16 mph 1017.1mb 83f 77f
4:00pm 11 13 mph 1017.3mb 83f 77f
3:00pm 9 11 mph 1017.2mb 83f 77f
2:00pm 7 9 mph 1017.8mb 82f 77f
1:00pm 4
mph
1018.3mb 82f 76f
12:00pm 7 9 mph 1018.8mb 81f 76f
11:00am 9
mph
1018.8mb 81f 76f
10:00am 9
mph
1018.9mb 81f 76f
9:00am 9
mph
1018.8mb 81f 76f
8:00am 9 11 mph 1018.4mb 81f 76f
7:00am 11 16 mph 1017.5mb 81f 75f
6:00am 11 13 mph 1017.6mb 81f 75f
5:00am 11
mph
1016.9mb 81f 75f
4:00am 13
mph
1017mb 81f 75f
2:00am 11 13 mph 1017.6mb 81f 75f
1:00am 9 11 mph 1018mb 81f 75f